Time;durP1;ratioP1;P1;durP2;ratioP2;P2;SDS_P1;SDS_P2;PMS_P1;PMS_P2;Temp;Humidity;BMP_temperature;BMP_pressure;BME280_temperature;BME280_humidity;BME280_pressure;Samples;Min_cycle;Max_cycle;Signal;HPM_P1;HPM_P2
2023/03/16 00:02:13;;;;;;;8.45;4.13;;;;;;;;;;5058869;28;20076;-63
2023/03/16 00:04:39;;;;;;;6.57;3.85;;;;;;;;;;5064189;28;20052;-61
2023/03/16 00:07:08;;;;;;;5.05;3.60;;;;;;;;;;5048996;28;20049;-62
2023/03/16 00:09:35;;;;;;;3.45;2.97;;;;;;;;;;5052636;28;20084;-61
2023/03/16 00:12:02;;;;;;;5.68;3.75;;;;;;;;;;5056462;28;20143;-62
2023/03/16 00:14:29;;;;;;;9.20;3.17;;;;;;;;;;5048047;28;20053;-62
2023/03/16 00:16:55;;;;;;;5.93;3.67;;;;;;;;;;5065426;28;20048;-62
2023/03/16 00:19:22;;;;;;;9.38;4.20;;;;;;;;;;5053229;28;20572;-62
2023/03/16 00:21:50;;;;;;;5.38;3.33;;;;;;;;;;5061958;28;20060;-60
2023/03/16 00:24:19;;;;;;;4.43;3.80;;;;;;;;;;5065668;28;20562;-62
2023/03/16 00:26:46;;;;;;;5.38;3.53;;;;;;;;;;5065450;28;20551;-61
2023/03/16 00:29:13;;;;;;;5.53;3.65;;;;;;;;;;5056081;28;20140;-60
2023/03/16 00:31:42;;;;;;;7.03;3.92;;;;;;;;;;5048780;28;20105;-61
2023/03/16 00:34:10;;;;;;;7.57;4.20;;;;;;;;;;5048039;28;20056;-62
2023/03/16 00:36:37;;;;;;;5.93;4.32;;;;;;;;;;5057260;28;20045;-61
2023/03/16 00:39:07;;;;;;;6.10;3.78;;;;;;;;;;5047476;28;20080;-61
2023/03/16 00:41:36;;;;;;;9.20;4.05;;;;;;;;;;5060643;28;20081;-61
2023/03/16 00:44:03;;;;;;;6.97;3.78;;;;;;;;;;5052691;28;20041;-61
2023/03/16 00:46:30;;;;;;;7.07;4.03;;;;;;;;;;5063690;28;20049;-61
2023/03/16 00:48:56;;;;;;;5.72;4.05;;;;;;;;;;5059685;28;20056;-62
2023/03/16 00:51:23;;;;;;;9.27;4.40;;;;;;;;;;5062357;28;20053;-60
2023/03/16 00:53:49;;;;;;;8.18;4.68;;;;;;;;;;5063047;28;20049;-61
2023/03/16 00:56:15;;;;;;;4.93;3.92;;;;;;;;;;5046773;28;20582;-62
2023/03/16 00:58:42;;;;;;;6.60;4.18;;;;;;;;;;5054775;28;20052;-60
2023/03/16 01:01:10;;;;;;;8.45;4.22;;;;;;;;;;5051987;28;20069;-61
2023/03/16 01:03:36;;;;;;;9.93;4.30;;;;;;;;;;5068335;28;20096;-61
2023/03/16 01:06:09;;;;;;;5.88;4.75;;;;;;;;;;5059057;28;20061;-61
2023/03/16 01:08:36;;;;;;;8.10;4.75;;;;;;;;;;5045643;28;20508;-62
2023/03/16 01:11:06;;;;;;;6.43;4.25;;;;;;;;;;5045559;28;20057;-60
2023/03/16 01:13:33;;;;;;;9.30;4.72;;;;;;;;;;5051535;28;20049;-60
2023/03/16 01:15:59;;;;;;;6.70;4.25;;;;;;;;;;5066149;28;20106;-60
2023/03/16 01:18:26;;;;;;;5.53;4.25;;;;;;;;;;5065477;28;20475;-60
2023/03/16 01:20:52;;;;;;;6.68;4.30;;;;;;;;;;5051652;28;20050;-62
2023/03/16 01:23:19;;;;;;;6.30;4.57;;;;;;;;;;5060124;28;20053;-60
2023/03/16 01:25:51;;;;;;;9.48;4.88;;;;;;;;;;5065319;28;20092;-60
2023/03/16 01:28:23;;;;;;;8.52;4.88;;;;;;;;;;5063974;28;20501;-61
2023/03/16 01:30:56;;;;;;;8.57;4.30;;;;;;;;;;5064739;28;20055;-60
2023/03/16 01:33:24;;;;;;;7.97;4.93;;;;;;;;;;5045664;28;20061;-60
2023/03/16 01:35:58;;;;;;;7.90;5.30;;;;;;;;;;5046180;28;20338;-60
2023/03/16 01:38:24;;;;;;;7.28;4.57;;;;;;;;;;5065257;28;20060;-62
2023/03/16 01:40:52;;;;;;;5.82;4.72;;;;;;;;;;5064506;28;20072;-60
2023/03/16 01:43:23;;;;;;;6.35;5.20;;;;;;;;;;5065267;28;20106;-60
2023/03/16 01:45:59;;;;;;;5.93;4.50;;;;;;;;;;5064714;28;20057;-60
2023/03/16 01:48:26;;;;;;;5.95;4.65;;;;;;;;;;5059220;28;20140;-60
2023/03/16 01:50:52;;;;;;;8.63;5.20;;;;;;;;;;5044546;28;20470;-60
2023/03/16 01:53:20;;;;;;;14.98;5.13;;;;;;;;;;5045749;28;20057;-61
2023/03/16 01:55:47;;;;;;;7.22;4.78;;;;;;;;;;5047516;28;20104;-60
2023/03/16 01:58:14;;;;;;;6.15;4.57;;;;;;;;;;5057658;28;20049;-61
2023/03/16 02:00:40;;;;;;;6.65;4.85;;;;;;;;;;5065379;28;20053;-60
2023/03/16 02:03:10;;;;;;;7.18;5.03;;;;;;;;;;5066151;28;20083;-60
2023/03/16 02:05:41;;;;;;;6.32;4.93;;;;;;;;;;5065996;28;20051;-60
2023/03/16 02:08:09;;;;;;;8.10;5.20;;;;;;;;;;5048457;28;20045;-60
2023/03/16 02:10:36;;;;;;;12.15;4.80;;;;;;;;;;5048394;28;20080;-60
2023/03/16 02:13:02;;;;;;;9.00;5.80;;;;;;;;;;5048558;28;20446;-60
2023/03/16 02:15:29;;;;;;;6.78;4.97;;;;;;;;;;5048980;28;20529;-60
2023/03/16 02:17:56;;;;;;;9.27;5.03;;;;;;;;;;5057662;28;20048;-61
2023/03/16 02:20:29;;;;;;;9.55;4.97;;;;;;;;;;5067264;28;20045;-62
2023/03/16 02:22:56;;;;;;;8.43;5.43;;;;;;;;;;5058530;28;20049;-61
2023/03/16 02:25:25;;;;;;;6.40;4.45;;;;;;;;;;5066945;28;20056;-61
2023/03/16 02:28:10;;;;;;;6.45;4.70;;;;;;;;;;5066225;28;20079;-62
2023/03/16 02:30:36;;;;;;;6.07;5.00;;;;;;;;;;5066728;28;20041;-61
2023/03/16 02:33:03;;;;;;;7.93;5.28;;;;;;;;;;5051557;28;20056;-60
2023/03/16 02:35:30;;;;;;;6.00;4.45;;;;;;;;;;5064485;28;20121;-59
2023/03/16 02:37:57;;;;;;;7.20;5.28;;;;;;;;;;5068133;28;20130;-60
2023/03/16 02:40:25;;;;;;;7.60;4.68;;;;;;;;;;5067047;28;20056;-61
2023/03/16 02:42:58;;;;;;;6.30;5.05;;;;;;;;;;5051105;28;20096;-60
2023/03/16 02:45:26;;;;;;;6.53;4.63;;;;;;;;;;5048016;28;20108;-60
2023/03/16 02:47:53;;;;;;;8.00;5.28;;;;;;;;;;5062783;28;20045;-60
2023/03/16 02:50:20;;;;;;;8.98;4.93;;;;;;;;;;5064423;28;20953;-60
2023/03/16 02:52:47;;;;;;;6.00;4.68;;;;;;;;;;5052481;28;20053;-61
2023/03/16 02:55:14;;;;;;;8.25;4.95;;;;;;;;;;5047573;28;20050;-62
2023/03/16 02:57:40;;;;;;;8.95;5.25;;;;;;;;;;5057342;28;20056;-61
2023/03/16 03:00:11;;;;;;;9.27;5.75;;;;;;;;;;5047146;28;20057;-60
2023/03/16 03:02:37;;;;;;;6.78;5.07;;;;;;;;;;5059350;28;20398;-60
2023/03/16 03:05:03;;;;;;;11.07;5.30;;;;;;;;;;5067626;28;20560;-60
2023/03/16 03:07:30;;;;;;;5.97;4.72;;;;;;;;;;5067818;28;20052;-60
2023/03/16 03:09:57;;;;;;;6.43;4.82;;;;;;;;;;5056726;28;20075;-62
2023/03/16 03:12:23;;;;;;;6.72;5.10;;;;;;;;;;5052072;28;20179;-60
2023/03/16 03:14:50;;;;;;;5.63;4.57;;;;;;;;;;5047327;28;20523;-62
2023/03/16 03:17:16;;;;;;;8.63;5.47;;;;;;;;;;5053298;28;20484;-60
2023/03/16 03:19:42;;;;;;;6.88;5.28;;;;;;;;;;5047728;28;20050;-61
2023/03/16 03:22:09;;;;;;;10.38;5.40;;;;;;;;;;5047398;28;20160;-62
2023/03/16 03:24:35;;;;;;;6.07;5.05;;;;;;;;;;5047206;28;20096;-60
2023/03/16 03:27:04;;;;;;;7.53;4.75;;;;;;;;;;5051939;28;20060;-60
2023/03/16 03:29:33;;;;;;;7.53;4.75;;;;;;;;;;5063780;28;20135;-61
2023/03/16 03:32:00;;;;;;;8.05;5.40;;;;;;;;;;5065583;28;20271;-61
2023/03/16 03:34:27;;;;;;;6.38;4.88;;;;;;;;;;5067651;28;20049;-60
2023/03/16 03:36:54;;;;;;;6.88;4.93;;;;;;;;;;5067072;28;20060;-60
2023/03/16 03:39:20;;;;;;;7.78;5.22;;;;;;;;;;5066596;28;20059;-63
2023/03/16 03:41:47;;;;;;;12.70;5.53;;;;;;;;;;5067158;28;20053;-60
2023/03/16 03:44:13;;;;;;;9.55;5.18;;;;;;;;;;5055177;28;20054;-60
2023/03/16 03:46:39;;;;;;;9.25;5.53;;;;;;;;;;5047830;28;20050;-61
2023/03/16 03:49:06;;;;;;;7.80;5.00;;;;;;;;;;5059076;28;20053;-60
2023/03/16 03:51:33;;;;;;;7.03;4.95;;;;;;;;;;5047959;28;20049;-60
2023/03/16 03:53:59;;;;;;;7.75;5.25;;;;;;;;;;5066266;28;20060;-61
2023/03/16 03:56:25;;;;;;;6.50;4.93;;;;;;;;;;5063218;28;20053;-61
2023/03/16 03:58:52;;;;;;;7.45;5.43;;;;;;;;;;5058679;28;20076;-60
2023/03/16 04:01:18;;;;;;;12.98;6.15;;;;;;;;;;5064219;28;20045;-61
2023/03/16 04:03:44;;;;;;;7.00;4.97;;;;;;;;;;5046850;28;20064;-60
2023/03/16 04:06:11;;;;;;;7.40;5.40;;;;;;;;;;5059801;28;20555;-61
2023/03/16 04:08:37;;;;;;;7.15;5.15;;;;;;;;;;5065915;28;20532;-62
2023/03/16 04:11:03;;;;;;;7.22;5.43;;;;;;;;;;5065965;28;20060;-60
2023/03/16 04:13:30;;;;;;;8.57;5.60;;;;;;;;;;5066035;28;20512;-60
2023/03/16 04:15:57;;;;;;;7.97;5.38;;;;;;;;;;5065504;28;20049;-62
2023/03/16 04:18:24;;;;;;;8.75;5.22;;;;;;;;;;5066034;28;20057;-60
2023/03/16 04:20:52;;;;;;;9.98;4.95;;;;;;;;;;5058175;28;20755;-60
2023/03/16 04:23:19;;;;;;;8.73;5.55;;;;;;;;;;5063280;28;20946;-61
2023/03/16 04:25:45;;;;;;;7.50;5.28;;;;;;;;;;5061563;28;20064;-60
2023/03/16 04:28:12;;;;;;;7.53;5.70;;;;;;;;;;5058208;28;20593;-60
2023/03/16 04:30:38;;;;;;;6.95;5.50;;;;;;;;;;5045966;28;20060;-60
2023/03/16 04:33:05;;;;;;;8.38;5.53;;;;;;;;;;5058599;28;20053;-61
2023/03/16 04:35:31;;;;;;;9.55;5.50;;;;;;;;;;5049631;28;20063;-61
2023/03/16 04:37:58;;;;;;;6.88;4.88;;;;;;;;;;5064465;28;20049;-60
2023/03/16 04:40:24;;;;;;;8.68;5.43;;;;;;;;;;5062205;28;20085;-62
2023/03/16 04:42:51;;;;;;;7.55;5.28;;;;;;;;;;5060332;28;20670;-61
2023/03/16 04:45:18;;;;;;;7.53;4.90;;;;;;;;;;5063772;28;20059;-60
2023/03/16 04:47:44;;;;;;;8.45;5.60;;;;;;;;;;5063240;28;20095;-60
2023/03/16 04:50:11;;;;;;;11.75;5.32;;;;;;;;;;5065874;28;20052;-61
2023/03/16 04:52:37;;;;;;;7.57;5.13;;;;;;;;;;5063213;28;20045;-61
2023/03/16 04:55:04;;;;;;;7.50;5.43;;;;;;;;;;5073126;28;20063;-60
2023/03/16 04:57:31;;;;;;;8.50;4.90;;;;;;;;;;5069919;28;20056;-61
2023/03/16 04:59:57;;;;;;;11.30;5.10;;;;;;;;;;5066154;28;20049;-60
2023/03/16 05:02:23;;;;;;;8.20;4.95;;;;;;;;;;5062489;28;20060;-60
2023/03/16 05:04:50;;;;;;;6.80;4.93;;;;;;;;;;5064301;28;20262;-60
2023/03/16 05:07:16;;;;;;;8.65;4.78;;;;;;;;;;5055518;28;20051;-60
2023/03/16 05:09:42;;;;;;;11.60;5.18;;;;;;;;;;5046391;28;20045;-60
2023/03/16 05:12:09;;;;;;;8.80;4.40;;;;;;;;;;5048785;28;20052;-61
2023/03/16 05:14:35;;;;;;;7.88;5.57;;;;;;;;;;5054954;28;20132;-60
2023/03/16 05:17:02;;;;;;;6.63;4.93;;;;;;;;;;5053908;28;20049;-62
2023/03/16 05:19:29;;;;;;;10.07;5.43;;;;;;;;;;5046041;28;20535;-60
2023/03/16 05:21:55;;;;;;;15.27;5.22;;;;;;;;;;5045131;28;20058;-61
2023/03/16 05:24:22;;;;;;;6.25;4.47;;;;;;;;;;5044373;28;20539;-60
2023/03/16 05:26:48;;;;;;;7.18;4.78;;;;;;;;;;5046815;28;20755;-60
2023/03/16 05:29:15;;;;;;;7.30;4.68;;;;;;;;;;5047163;28;20484;-61
2023/03/16 05:31:41;;;;;;;9.57;4.93;;;;;;;;;;5065284;28;20049;-62
2023/03/16 05:34:08;;;;;;;6.30;4.80;;;;;;;;;;5053476;28;20089;-60
2023/03/16 05:36:35;;;;;;;12.13;4.43;;;;;;;;;;5044379;28;20128;-62
2023/03/16 05:39:01;;;;;;;7.38;4.60;;;;;;;;;;5049736;28;20128;-60
2023/03/16 05:41:28;;;;;;;7.10;4.70;;;;;;;;;;5051685;28;20471;-60
2023/03/16 05:43:54;;;;;;;7.18;4.45;;;;;;;;;;5065122;28;20656;-60
2023/03/16 05:46:20;;;;;;;8.27;4.60;;;;;;;;;;5052267;28;20108;-60
2023/03/16 05:48:47;;;;;;;6.90;4.68;;;;;;;;;;5054803;28;20491;-61
2023/03/16 05:51:13;;;;;;;7.68;4.97;;;;;;;;;;5077488;28;20064;-60
2023/03/16 05:53:40;;;;;;;8.48;4.60;;;;;;;;;;5081736;28;20056;-60
2023/03/16 05:56:06;;;;;;;8.07;5.60;;;;;;;;;;5063988;28;20056;-60
2023/03/16 05:58:32;;;;;;;11.43;5.60;;;;;;;;;;5046849;28;20338;-60
2023/03/16 06:01:03;;;;;;;7.50;4.50;;;;;;;;;;5045289;28;20049;-60
2023/03/16 06:03:30;;;;;;;6.47;4.53;;;;;;;;;;5073915;28;20079;-61
2023/03/16 06:05:56;;;;;;;7.30;4.53;;;;;;;;;;5044742;28;20062;-61
2023/03/16 06:08:23;;;;;;;7.82;4.18;;;;;;;;;;5057976;28;20077;-60
2023/03/16 06:10:49;;;;;;;6.35;4.60;;;;;;;;;;5064724;28;20503;-61
2023/03/16 06:13:15;;;;;;;8.75;4.88;;;;;;;;;;5065453;28;20045;-63
2023/03/16 06:15:43;;;;;;;9.43;4.78;;;;;;;;;;5063763;28;20053;-61
2023/03/16 06:18:09;;;;;;;6.20;4.18;;;;;;;;;;5064943;28;20479;-62
2023/03/16 06:20:35;;;;;;;5.63;4.22;;;;;;;;;;5060567;28;20542;-61
2023/03/16 06:23:03;;;;;;;5.55;4.45;;;;;;;;;;5057580;28;20060;-62
2023/03/16 06:25:30;;;;;;;7.30;4.50;;;;;;;;;;5047686;28;20120;-62
2023/03/16 06:27:56;;;;;;;5.53;4.10;;;;;;;;;;5052843;28;20084;-60
2023/03/16 06:30:22;;;;;;;6.85;4.65;;;;;;;;;;5060590;28;20099;-60
2023/03/16 06:32:49;;;;;;;9.73;4.82;;;;;;;;;;5045404;28;20164;-61
2023/03/16 06:35:15;;;;;;;8.43;4.55;;;;;;;;;;5045044;28;20051;-61
2023/03/16 06:37:42;;;;;;;4.93;4.43;;;;;;;;;;5059875;28;20064;-61
2023/03/16 06:40:08;;;;;;;8.60;3.90;;;;;;;;;;5058072;28;20549;-61
2023/03/16 06:42:35;;;;;;;6.57;4.30;;;;;;;;;;5071018;28;20510;-63
2023/03/16 06:45:01;;;;;;;5.50;4.00;;;;;;;;;;5053357;28;20494;-62
2023/03/16 06:47:27;;;;;;;7.30;4.32;;;;;;;;;;5068888;28;20514;-62
2023/03/16 06:49:54;;;;;;;7.63;4.30;;;;;;;;;;5039490;28;20772;-63
2023/03/16 06:52:21;;;;;;;7.75;4.13;;;;;;;;;;5060764;28;20053;-60
2023/03/16 06:54:47;;;;;;;5.78;4.03;;;;;;;;;;5060965;28;20152;-61
2023/03/16 06:57:14;;;;;;;7.45;4.70;;;;;;;;;;5057162;28;20059;-61
2023/03/16 06:59:40;;;;;;;5.03;4.20;;;;;;;;;;5061818;28;22146;-62
2023/03/16 07:02:08;;;;;;;6.70;4.15;;;;;;;;;;5060599;28;20182;-62
2023/03/16 07:04:34;;;;;;;6.28;4.00;;;;;;;;;;5062832;28;20064;-62
2023/03/16 07:07:01;;;;;;;6.25;3.60;;;;;;;;;;5047044;28;20131;-62
2023/03/16 07:09:27;;;;;;;7.72;4.25;;;;;;;;;;5059789;28;20418;-63
2023/03/16 07:11:53;;;;;;;6.50;3.75;;;;;;;;;;5067768;28;20041;-62
2023/03/16 07:14:22;;;;;;;6.22;3.92;;;;;;;;;;5058832;28;20053;-62
2023/03/16 07:16:48;;;;;;;7.85;3.85;;;;;;;;;;5065914;28;20545;-61
2023/03/16 07:19:15;;;;;;;7.07;3.65;;;;;;;;;;5061712;28;20079;-63
2023/03/16 07:21:41;;;;;;;5.88;3.63;;;;;;;;;;5054754;28;20077;-62
2023/03/16 07:24:08;;;;;;;7.40;3.85;;;;;;;;;;5060249;28;20098;-61
2023/03/16 07:26:35;;;;;;;5.75;3.70;;;;;;;;;;5078719;28;20063;-66
2023/03/16 07:29:03;;;;;;;7.20;3.70;;;;;;;;;;5067985;28;20049;-62
2023/03/16 07:31:31;;;;;;;5.63;3.90;;;;;;;;;;5075562;28;20051;-62
2023/03/16 07:33:57;;;;;;;5.35;4.22;;;;;;;;;;5061992;28;20077;-60
2023/03/16 07:36:24;;;;;;;6.95;3.67;;;;;;;;;;5062541;28;20547;-61
2023/03/16 07:38:50;;;;;;;7.90;4.30;;;;;;;;;;5048537;28;20044;-61
2023/03/16 07:41:17;;;;;;;7.88;4.03;;;;;;;;;;5061080;28;20578;-60
2023/03/16 07:43:43;;;;;;;6.22;4.30;;;;;;;;;;5057573;28;20574;-62
2023/03/16 07:46:12;;;;;;;8.88;3.45;;;;;;;;;;5069254;28;20184;-61
2023/03/16 07:48:41;;;;;;;5.18;3.63;;;;;;;;;;5063800;28;20053;-61
2023/03/16 07:51:11;;;;;;;8.27;4.57;;;;;;;;;;5063472;28;20049;-61
2023/03/16 07:53:38;;;;;;;6.55;3.90;;;;;;;;;;5063114;28;20053;-61
2023/03/16 07:56:04;;;;;;;7.88;4.10;;;;;;;;;;5061100;28;20448;-62
2023/03/16 07:58:31;;;;;;;6.60;4.18;;;;;;;;;;5060680;28;20487;-61
2023/03/16 08:00:58;;;;;;;7.70;4.53;;;;;;;;;;5060444;28;20052;-61
2023/03/16 08:03:25;;;;;;;7.60;3.92;;;;;;;;;;5060277;28;20583;-61
2023/03/16 08:05:52;;;;;;;8.23;3.50;;;;;;;;;;5047365;28;20064;-62
2023/03/16 08:08:19;;;;;;;4.45;3.83;;;;;;;;;;5051473;28;20049;-64
2023/03/16 08:10:51;;;;;;;6.25;4.03;;;;;;;;;;5062426;28;20107;-61
2023/03/16 08:13:18;;;;;;;9.10;4.18;;;;;;;;;;5058371;28;20052;-62
2023/03/16 08:15:46;;;;;;;5.18;4.22;;;;;;;;;;5059124;28;20053;-62
2023/03/16 08:18:12;;;;;;;5.82;3.67;;;;;;;;;;5055536;28;20104;-62
2023/03/16 08:20:39;;;;;;;8.27;3.88;;;;;;;;;;5062717;28;20055;-62
2023/03/16 08:23:05;;;;;;;7.55;3.70;;;;;;;;;;5067866;28;20063;-61
2023/03/16 08:25:32;;;;;;;8.02;3.80;;;;;;;;;;5055682;28;20054;-62
2023/03/16 08:27:58;;;;;;;7.10;4.05;;;;;;;;;;5056528;28;20515;-61
2023/03/16 08:30:25;;;;;;;6.88;3.85;;;;;;;;;;5060141;28;20195;-61
2023/03/16 08:32:52;;;;;;;8.00;4.03;;;;;;;;;;5062577;28;20053;-61
2023/03/16 08:35:19;;;;;;;8.07;3.80;;;;;;;;;;5051865;28;20090;-61
2023/03/16 08:37:45;;;;;;;6.03;4.47;;;;;;;;;;5062685;28;20469;-61
2023/03/16 08:40:19;;;;;;;9.05;3.53;;;;;;;;;;5062277;28;20526;-62
2023/03/16 08:42:48;;;;;;;7.03;4.05;;;;;;;;;;5062016;28;20057;-63
2023/03/16 08:45:16;;;;;;;6.93;4.03;;;;;;;;;;5063461;28;20049;-62
2023/03/16 08:47:42;;;;;;;7.18;3.75;;;;;;;;;;5061703;28;20485;-63
2023/03/16 08:50:11;;;;;;;6.13;3.65;;;;;;;;;;5066469;28;20599;-62
2023/03/16 08:52:39;;;;;;;8.32;3.38;;;;;;;;;;5057069;28;20959;-62
2023/03/16 08:55:08;;;;;;;6.80;4.30;;;;;;;;;;5081466;28;20048;-62
2023/03/16 08:57:34;;;;;;;7.22;4.22;;;;;;;;;;5064681;28;20541;-62
2023/03/16 09:00:04;;;;;;;6.32;4.13;;;;;;;;;;5061818;28;20498;-63
2023/03/16 09:02:30;;;;;;;8.27;3.92;;;;;;;;;;5062437;28;20053;-62
2023/03/16 09:04:57;;;;;;;5.75;3.85;;;;;;;;;;5059024;28;20140;-62
2023/03/16 09:07:24;;;;;;;8.85;3.90;;;;;;;;;;5059549;28;20049;-63
2023/03/16 09:09:51;;;;;;;6.72;4.35;;;;;;;;;;5061144;28;20626;-62
2023/03/16 09:12:19;;;;;;;8.23;4.28;;;;;;;;;;5060737;28;20081;-62
2023/03/16 09:14:45;;;;;;;6.97;3.22;;;;;;;;;;5060663;28;20135;-62
2023/03/16 09:17:12;;;;;;;7.82;4.38;;;;;;;;;;5062945;28;20533;-62
2023/03/16 09:19:39;;;;;;;5.05;3.58;;;;;;;;;;5057587;28;20505;-64
2023/03/16 09:22:18;;;;;;;5.00;3.67;;;;;;;;;;5052893;28;20917;-62
2023/03/16 09:24:45;;;;;;;6.65;4.18;;;;;;;;;;5064175;28;20049;-62
2023/03/16 09:27:11;;;;;;;5.20;3.70;;;;;;;;;;5082471;28;20052;-63
2023/03/16 09:29:39;;;;;;;6.25;4.20;;;;;;;;;;5067562;28;20829;-62
2023/03/16 09:32:06;;;;;;;8.55;3.75;;;;;;;;;;5060742;28;20822;-63
2023/03/16 09:34:33;;;;;;;4.80;3.72;;;;;;;;;;5059330;28;20064;-62
2023/03/16 09:37:00;;;;;;;7.68;4.03;;;;;;;;;;5062176;28;20057;-62
2023/03/16 09:39:26;;;;;;;7.15;4.22;;;;;;;;;;5063354;28;20049;-63
2023/03/16 09:41:57;;;;;;;6.15;3.67;;;;;;;;;;5064915;28;20515;-61
2023/03/16 09:44:32;;;;;;;6.30;3.42;;;;;;;;;;5060086;28;20053;-61
2023/03/16 09:47:00;;;;;;;5.10;3.83;;;;;;;;;;5056789;28;20057;-62
2023/03/16 09:49:29;;;;;;;9.93;3.70;;;;;;;;;;5058389;28;20511;-63
2023/03/16 09:51:56;;;;;;;4.18;3.28;;;;;;;;;;5061344;28;20049;-62
2023/03/16 09:54:51;;;;;;;4.80;3.42;;;;;;;;;;5053601;28;20061;-63
2023/03/16 09:57:26;;;;;;;7.25;4.03;;;;;;;;;;5045922;28;20053;-63
2023/03/16 09:59:54;;;;;;;7.20;3.28;;;;;;;;;;5053373;28;20053;-63
2023/03/16 10:02:26;;;;;;;7.68;3.40;;;;;;;;;;5059830;28;20053;-62
2023/03/16 10:05:02;;;;;;;7.85;3.65;;;;;;;;;;5061075;28;20166;-62
2023/03/16 10:07:48;;;;;;;7.45;3.20;;;;;;;;;;5059991;28;20053;-61
2023/03/16 10:10:24;;;;;;;7.20;3.38;;;;;;;;;;5052134;28;20065;-61
2023/03/16 10:12:52;;;;;;;8.40;3.58;;;;;;;;;;5061674;28;20049;-62
2023/03/16 10:15:21;;;;;;;10.40;3.97;;;;;;;;;;5076458;28;20107;-62
2023/03/16 10:17:51;;;;;;;6.40;3.55;;;;;;;;;;5060878;28;20049;-61
2023/03/16 10:20:19;;;;;;;5.03;3.42;;;;;;;;;;5058887;28;20527;-63
2023/03/16 10:22:46;;;;;;;5.65;3.70;;;;;;;;;;5056626;28;20048;-63
2023/03/16 10:25:24;;;;;;;7.28;3.80;;;;;;;;;;5064322;28;20134;-62
2023/03/16 10:27:51;;;;;;;5.63;3.28;;;;;;;;;;5064634;28;20126;-61
2023/03/16 10:30:18;;;;;;;8.60;3.25;;;;;;;;;;5064301;28;20060;-64
2023/03/16 10:32:45;;;;;;;5.55;3.25;;;;;;;;;;5063950;28;20060;-64
2023/03/16 10:35:27;;;;;;;5.07;3.30;;;;;;;;;;5064458;28;20057;-63
2023/03/16 10:37:56;;;;;;;5.70;3.30;;;;;;;;;;5064325;28;20079;-63
2023/03/16 10:40:22;;;;;;;9.27;3.40;;;;;;;;;;5060733;28;20139;-51
2023/03/16 10:42:49;;;;;;;4.40;3.10;;;;;;;;;;5085698;28;20588;-63
2023/03/16 10:45:32;;;;;;;5.70;3.50;;;;;;;;;;5065349;28;20049;-63
2023/03/16 10:48:25;;;;;;;8.13;3.15;;;;;;;;;;5066422;28;20530;-64
2023/03/16 10:50:54;;;;;;;6.25;3.45;;;;;;;;;;5051990;28;20057;-64
2023/03/16 10:53:24;;;;;;;4.63;3.92;;;;;;;;;;5048485;28;20045;-64
2023/03/16 10:55:55;;;;;;;6.55;3.70;;;;;;;;;;5064602;28;20057;-63
2023/03/16 10:58:24;;;;;;;5.70;3.20;;;;;;;;;;5068348;28;20179;-64
2023/03/16 11:00:50;;;;;;;5.22;3.20;;;;;;;;;;5065457;28;20060;-63
2023/03/16 11:03:23;;;;;;;5.55;3.03;;;;;;;;;;5065896;28;20561;-63
2023/03/16 11:05:56;;;;;;;7.72;2.85;;;;;;;;;;5065388;28;20154;-63
2023/03/16 11:08:24;;;;;;;4.72;3.05;;;;;;;;;;5064391;28;20057;-63
2023/03/16 11:10:56;;;;;;;4.30;3.10;;;;;;;;;;5062210;28;20052;-63
2023/03/16 11:13:25;;;;;;;5.30;3.05;;;;;;;;;;5061535;28;20096;-63
2023/03/16 11:15:56;;;;;;;6.70;3.70;;;;;;;;;;5062878;28;20049;-62
2023/03/16 11:18:28;;;;;;;9.05;3.40;;;;;;;;;;5048144;28;20053;-62
2023/03/16 11:20:56;;;;;;;9.57;2.95;;;;;;;;;;5059423;28;20068;-62
2023/03/16 11:23:29;;;;;;;5.90;3.13;;;;;;;;;;5052472;28;20041;-63
2023/03/16 11:25:57;;;;;;;5.38;3.08;;;;;;;;;;5052250;28;20072;-63
2023/03/16 11:28:31;;;;;;;9.18;3.55;;;;;;;;;;5063697;28;20246;-64
2023/03/16 11:31:12;;;;;;;6.90;3.75;;;;;;;;;;5061919;28;20053;-63
2023/03/16 11:33:39;;;;;;;3.20;2.90;;;;;;;;;;5067008;28;20068;-63
2023/03/16 11:36:20;;;;;;;5.78;3.03;;;;;;;;;;5062304;28;20053;-63
2023/03/16 11:38:52;;;;;;;3.58;2.90;;;;;;;;;;5065238;28;20517;-64
2023/03/16 11:41:47;;;;;;;5.57;2.80;;;;;;;;;;5057151;28;20046;-64
2023/03/16 11:44:35;;;;;;;5.40;2.97;;;;;;;;;;5058260;28;20045;-63
2023/03/16 11:47:14;;;;;;;8.82;3.47;;;;;;;;;;5063828;28;20076;-64
2023/03/16 11:49:53;;;;;;;6.10;3.10;;;;;;;;;;5058986;28;20049;-63
2023/03/16 11:52:28;;;;;;;4.72;2.90;;;;;;;;;;5054261;28;20056;-63
2023/03/16 11:54:57;;;;;;;5.82;3.20;;;;;;;;;;5057022;28;20113;-63
2023/03/16 11:57:27;;;;;;;4.75;2.65;;;;;;;;;;5059043;28;20053;-63
2023/03/16 12:00:12;;;;;;;6.22;3.85;;;;;;;;;;5051261;28;20103;-62
2023/03/16 12:02:48;;;;;;;6.53;3.00;;;;;;;;;;5057794;28;20049;-62
2023/03/16 12:05:38;;;;;;;5.57;2.58;;;;;;;;;;5047420;28;20062;-62
2023/03/16 12:08:12;;;;;;;4.68;2.90;;;;;;;;;;5056599;28;20049;-63
2023/03/16 12:10:42;;;;;;;5.25;2.45;;;;;;;;;;5053968;28;20555;-63
2023/03/16 12:13:29;;;;;;;4.50;2.80;;;;;;;;;;5052074;28;20060;-62
2023/03/16 12:15:58;;;;;;;3.83;2.55;;;;;;;;;;5047931;28;20142;-62
2023/03/16 12:18:29;;;;;;;14.48;3.53;;;;;;;;;;5057311;28;20049;-62
2023/03/16 12:21:11;;;;;;;4.43;2.85;;;;;;;;;;5062105;28;20049;-64
2023/03/16 12:23:51;;;;;;;7.65;2.90;;;;;;;;;;5060518;28;20589;-62
2023/03/16 12:26:19;;;;;;;11.18;2.80;;;;;;;;;;5046356;28;20057;-63
2023/03/16 12:28:47;;;;;;;4.40;2.90;;;;;;;;;;5061563;28;20060;-63
2023/03/16 12:31:18;;;;;;;5.70;2.90;;;;;;;;;;5051944;28;20055;-62
2023/03/16 12:33:45;;;;;;;3.88;2.58;;;;;;;;;;5069036;28;20551;-62
2023/03/16 12:36:11;;;;;;;11.50;3.15;;;;;;;;;;5063074;28;20091;-62
2023/03/16 12:38:37;;;;;;;5.70;2.45;;;;;;;;;;5063843;28;20152;-63
2023/03/16 12:41:10;;;;;;;5.30;2.05;;;;;;;;;;5062796;28;20507;-62
2023/03/16 12:43:54;;;;;;;5.45;2.17;;;;;;;;;;5062943;28;20455;-62
2023/03/16 12:46:27;;;;;;;3.72;2.35;;;;;;;;;;5061127;28;20053;-63
2023/03/16 12:48:59;;;;;;;3.75;2.20;;;;;;;;;;5054588;28;20510;-63
2023/03/16 12:51:36;;;;;;;4.43;2.20;;;;;;;;;;5060184;28;20530;-63
2023/03/16 12:54:04;;;;;;;3.58;2.13;;;;;;;;;;5062234;28;20060;-64
2023/03/16 12:56:32;;;;;;;4.10;2.17;;;;;;;;;;5047181;28;20403;-62
2023/03/16 12:59:00;;;;;;;3.47;1.80;;;;;;;;;;5056845;28;20048;-63
2023/03/16 13:01:27;;;;;;;3.20;1.85;;;;;;;;;;5056424;28;20045;-65
2023/03/16 13:04:05;;;;;;;2.95;1.80;;;;;;;;;;5048307;28;20112;-63
2023/03/16 13:06:33;;;;;;;3.50;1.92;;;;;;;;;;5059190;28;20080;-63
2023/03/16 13:09:03;;;;;;;2.75;1.75;;;;;;;;;;5052044;28;20128;-64
2023/03/16 13:11:42;;;;;;;5.18;2.30;;;;;;;;;;5061072;28;20076;-62
2023/03/16 13:14:13;;;;;;;2.53;1.42;;;;;;;;;;5058231;28;20310;-62
2023/03/16 13:16:40;;;;;;;4.25;1.55;;;;;;;;;;5047349;28;20045;-62
2023/03/16 13:19:21;;;;;;;3.60;1.80;;;;;;;;;;5062050;28;20053;-63
2023/03/16 13:21:58;;;;;;;3.33;1.55;;;;;;;;;;5055950;28;20053;-62
2023/03/16 13:24:27;;;;;;;2.20;1.33;;;;;;;;;;5057974;28;20060;-62
2023/03/16 13:27:00;;;;;;;1.90;1.40;;;;;;;;;;5056541;28;20506;-63
2023/03/16 13:29:28;;;;;;;5.00;1.60;;;;;;;;;;5058430;28;20049;-62
2023/03/16 13:32:07;;;;;;;2.53;1.67;;;;;;;;;;5058816;28;20794;-64
2023/03/16 13:34:38;;;;;;;6.38;1.90;;;;;;;;;;5052761;28;20055;-62
2023/03/16 13:37:13;;;;;;;3.20;1.55;;;;;;;;;;5057973;28;20633;-63
2023/03/16 13:39:39;;;;;;;2.30;1.27;;;;;;;;;;5055083;28;20052;-63
2023/03/16 13:42:17;;;;;;;6.40;1.65;;;;;;;;;;5060008;28;20503;-61
2023/03/16 13:44:44;;;;;;;2.33;1.52;;;;;;;;;;5060015;28;20084;-63
2023/03/16 13:47:14;;;;;;;4.28;1.50;;;;;;;;;;5059036;28;20045;-63
2023/03/16 13:49:52;;;;;;;2.33;1.45;;;;;;;;;;5057232;28;20063;-62
2023/03/16 13:52:23;;;;;;;2.08;1.02;;;;;;;;;;5061049;28;20103;-61
2023/03/16 13:54:51;;;;;;;2.97;1.60;;;;;;;;;;5061590;28;20511;-62
2023/03/16 13:57:19;;;;;;;3.28;1.63;;;;;;;;;;5062242;28;20529;-64
2023/03/16 13:59:46;;;;;;;3.55;1.42;;;;;;;;;;5064682;28;20099;-61
2023/03/16 14:02:17;;;;;;;3.85;1.80;;;;;;;;;;5063577;28;20530;-61
2023/03/16 14:04:43;;;;;;;2.53;1.40;;;;;;;;;;5064279;28;20605;-61
2023/03/16 14:07:17;;;;;;;5.47;1.60;;;;;;;;;;5064529;28;21233;-61
2023/03/16 14:09:45;;;;;;;3.85;1.77;;;;;;;;;;5067319;28;21817;-63
2023/03/16 14:12:13;;;;;;;3.35;1.70;;;;;;;;;;5064844;28;20615;-62
2023/03/16 14:14:40;;;;;;;2.15;1.40;;;;;;;;;;5065095;28;20396;-61
2023/03/16 14:17:10;;;;;;;10.07;1.80;;;;;;;;;;5074979;28;20401;-62
2023/03/16 14:19:56;;;;;;;7.35;1.60;;;;;;;;;;5060456;28;20516;-61
2023/03/16 14:22:33;;;;;;;1.92;1.15;;;;;;;;;;5077211;28;20079;-62
2023/03/16 14:25:00;;;;;;;5.15;1.58;;;;;;;;;;5078808;28;20040;-62
2023/03/16 14:27:38;;;;;;;3.15;1.50;;;;;;;;;;5053485;28;20139;-62
2023/03/16 14:30:26;;;;;;;3.28;1.60;;;;;;;;;;5050435;28;20313;-62
2023/03/16 14:32:54;;;;;;;3.58;1.55;;;;;;;;;;5045045;28;20052;-61
2023/03/16 14:35:20;;;;;;;3.00;1.40;;;;;;;;;;5052736;28;20037;-63
2023/03/16 14:37:49;;;;;;;2.25;1.35;;;;;;;;;;5059233;28;20057;-62
2023/03/16 14:40:29;;;;;;;5.95;1.95;;;;;;;;;;5062797;28;20049;-63
2023/03/16 14:42:57;;;;;;;3.78;1.58;;;;;;;;;;5061976;28;20528;-62
2023/03/16 14:45:29;;;;;;;2.38;1.25;;;;;;;;;;5064424;28;20064;-62
2023/03/16 14:48:00;;;;;;;4.90;1.45;;;;;;;;;;5062588;28;20053;-61
2023/03/16 14:50:27;;;;;;;2.13;1.25;;;;;;;;;;5063352;28;20053;-60
2023/03/16 14:52:54;;;;;;;1.80;1.20;;;;;;;;;;5062798;28;20118;-62
2023/03/16 14:55:22;;;;;;;2.90;1.38;;;;;;;;;;5064190;28;20132;-62